CheckWX is a tool to help pilots better visualize weather data.  It is not intended as a substitute for an official pre-flight weather briefing.

18:18:34 UTC

KPBF METAR
Pine Bluff Regional Grider Field Airport
Pine Bluff, Arkansas, USA
Current

26 mins ago

KPBF 171753Z AUTO 00000KT 10SM CLR 17/05 A3009 RMK AO2 SLP187 T01720050 10178 20061 58018
Observed
Oct-17 @ 17:53 UTC
Visibility
10 SM
Flight Rules
VFR
Cloud Levels
  • Clear skies
Temperature
17°C / 63°F
Dewpoint
C / 41°F
Humidity
45%
Altimeter
30.09" Hg
Pressure
1018.92 hPa
Previous

1 hour ago

KPBF 171653Z AUTO 18003KT 10SM CLR 16/07 A3011 RMK AO2 SLP196 T01610067
Observed
Oct-17 @ 16:53 UTC
Wind
  • 180° at 3 KTS
Visibility
10 SM
Flight Rules
VFR
Cloud Levels
  • Clear skies
Temperature
16°C / 61°F
Dewpoint
C / 45°F
Humidity
55%
Altimeter
30.11" Hg
Pressure
1019.62 hPa
Previous

2 hours ago

KPBF 171553Z AUTO 05004KT 10SM CLR 13/08 A3013 RMK AO2 SLP200 T01330078
Observed
Oct-17 @ 15:53 UTC
Wind
  • 050° at 4 KTS
Visibility
10 SM
Flight Rules
VFR
Cloud Levels
  • Clear skies
Temperature
13°C / 55°F
Dewpoint
C / 46°F
Humidity
72%
Altimeter
30.13" Hg
Pressure
1020.32 hPa